sensor_id;sensor_type;location;lat;lon;timestamp;P1;durP1;ratioP1;P2;durP2;ratioP2
16407;SDS011;8313;49.894;8.084;2022-11-20T00:00:28;17.73;;;9.83;;
16407;SDS011;8313;49.894;8.084;2022-11-20T00:02:54;19.03;;;10.30;;
16407;SDS011;8313;49.894;8.084;2022-11-20T00:05:20;17.70;;;8.20;;
16407;SDS011;8313;49.894;8.084;2022-11-20T00:07:46;15.60;;;9.60;;
16407;SDS011;8313;49.894;8.084;2022-11-20T00:10:12;15.77;;;8.90;;
16407;SDS011;8313;49.894;8.084;2022-11-20T00:12:38;17.97;;;10.20;;
16407;SDS011;8313;49.894;8.084;2022-11-20T00:15:03;18.57;;;9.43;;
16407;SDS011;8313;49.894;8.084;2022-11-20T00:17:29;17.40;;;9.63;;
16407;SDS011;8313;49.894;8.084;2022-11-20T00:19:55;18.80;;;9.90;;
16407;SDS011;8313;49.894;8.084;2022-11-20T00:22:21;20.13;;;9.97;;
16407;SDS011;8313;49.894;8.084;2022-11-20T00:24:47;21.90;;;10.00;;
16407;SDS011;8313;49.894;8.084;2022-11-20T00:27:12;17.50;;;8.90;;
16407;SDS011;8313;49.894;8.084;2022-11-20T00:29:38;14.17;;;7.80;;
16407;SDS011;8313;49.894;8.084;2022-11-20T00:32:04;18.30;;;9.13;;
16407;SDS011;8313;49.894;8.084;2022-11-20T00:34:29;21.90;;;10.03;;
16407;SDS011;8313;49.894;8.084;2022-11-20T00:36:55;19.27;;;10.77;;
16407;SDS011;8313;49.894;8.084;2022-11-20T00:39:20;18.80;;;9.40;;
16407;SDS011;8313;49.894;8.084;2022-11-20T00:41:46;20.80;;;10.50;;
16407;SDS011;8313;49.894;8.084;2022-11-20T00:44:12;18.13;;;10.13;;
16407;SDS011;8313;49.894;8.084;2022-11-20T00:46:37;17.03;;;9.07;;
16407;SDS011;8313;49.894;8.084;2022-11-20T00:49:03;16.00;;;9.30;;
16407;SDS011;8313;49.894;8.084;2022-11-20T00:51:29;16.90;;;10.03;;
16407;SDS011;8313;49.894;8.084;2022-11-20T00:53:55;19.40;;;10.10;;
16407;SDS011;8313;49.894;8.084;2022-11-20T00:56:22;18.70;;;10.13;;
16407;SDS011;8313;49.894;8.084;2022-11-20T00:58:48;17.33;;;9.63;;
16407;SDS011;8313;49.894;8.084;2022-11-20T01:01:15;18.07;;;9.73;;
16407;SDS011;8313;49.894;8.084;2022-11-20T01:03:47;16.40;;;9.30;;
16407;SDS011;8313;49.894;8.084;2022-11-20T01:06:24;19.80;;;9.70;;
16407;SDS011;8313;49.894;8.084;2022-11-20T01:08:52;19.63;;;10.13;;
16407;SDS011;8313;49.894;8.084;2022-11-20T01:11:20;18.17;;;8.93;;
16407;SDS011;8313;49.894;8.084;2022-11-20T01:13:57;16.70;;;9.40;;
16407;SDS011;8313;49.894;8.084;2022-11-20T01:16:25;19.57;;;9.20;;
16407;SDS011;8313;49.894;8.084;2022-11-20T01:18:59;19.27;;;9.13;;
16407;SDS011;8313;49.894;8.084;2022-11-20T01:21:27;17.43;;;9.33;;
16407;SDS011;8313;49.894;8.084;2022-11-20T01:23:55;19.90;;;9.30;;
16407;SDS011;8313;49.894;8.084;2022-11-20T01:26:22;18.70;;;10.03;;
16407;SDS011;8313;49.894;8.084;2022-11-20T01:28:49;19.97;;;10.43;;
16407;SDS011;8313;49.894;8.084;2022-11-20T01:31:19;18.83;;;9.50;;
16407;SDS011;8313;49.894;8.084;2022-11-20T01:33:51;17.03;;;9.43;;
16407;SDS011;8313;49.894;8.084;2022-11-20T01:36:20;25.03;;;10.60;;
16407;SDS011;8313;49.894;8.084;2022-11-20T01:38:51;19.00;;;9.57;;
16407;SDS011;8313;49.894;8.084;2022-11-20T01:41:18;24.67;;;11.27;;
16407;SDS011;8313;49.894;8.084;2022-11-20T01:44:03;20.83;;;8.57;;
16407;SDS011;8313;49.894;8.084;2022-11-20T01:46:30;18.83;;;10.00;;
16407;SDS011;8313;49.894;8.084;2022-11-20T01:51:32;26.07;;;10.63;;
16407;SDS011;8313;49.894;8.084;2022-11-20T01:54:00;22.93;;;11.40;;
16407;SDS011;8313;49.894;8.084;2022-11-20T01:56:29;19.30;;;9.63;;
16407;SDS011;8313;49.894;8.084;2022-11-20T01:58:59;26.03;;;11.17;;
16407;SDS011;8313;49.894;8.084;2022-11-20T02:01:26;21.30;;;11.10;;
16407;SDS011;8313;49.894;8.084;2022-11-20T02:03:52;20.73;;;10.73;;
16407;SDS011;8313;49.894;8.084;2022-11-20T02:06:21;22.33;;;11.40;;
16407;SDS011;8313;49.894;8.084;2022-11-20T02:08:51;19.13;;;10.30;;
16407;SDS011;8313;49.894;8.084;2022-11-20T02:11:18;20.00;;;11.00;;
16407;SDS011;8313;49.894;8.084;2022-11-20T02:13:44;17.53;;;10.20;;
16407;SDS011;8313;49.894;8.084;2022-11-20T02:18:44;18.77;;;10.17;;
16407;SDS011;8313;49.894;8.084;2022-11-20T02:26:20;29.70;;;10.90;;
16407;SDS011;8313;49.894;8.084;2022-11-20T02:28:48;17.83;;;10.60;;
16407;SDS011;8313;49.894;8.084;2022-11-20T02:31:14;21.07;;;11.00;;
16407;SDS011;8313;49.894;8.084;2022-11-20T02:33:40;23.37;;;11.67;;
16407;SDS011;8313;49.894;8.084;2022-11-20T02:36:07;22.00;;;11.10;;
16407;SDS011;8313;49.894;8.084;2022-11-20T02:38:36;15.37;;;8.63;;
16407;SDS011;8313;49.894;8.084;2022-11-20T02:41:02;20.20;;;10.80;;
16407;SDS011;8313;49.894;8.084;2022-11-20T02:43:27;21.20;;;9.90;;
16407;SDS011;8313;49.894;8.084;2022-11-20T02:45:53;19.07;;;10.47;;
16407;SDS011;8313;49.894;8.084;2022-11-20T02:48:19;18.63;;;9.53;;
16407;SDS011;8313;49.894;8.084;2022-11-20T02:50:44;26.63;;;11.80;;
16407;SDS011;8313;49.894;8.084;2022-11-20T02:53:10;16.80;;;10.07;;
16407;SDS011;8313;49.894;8.084;2022-11-20T02:55:35;24.57;;;11.17;;
16407;SDS011;8313;49.894;8.084;2022-11-20T02:58:01;21.77;;;10.40;;
16407;SDS011;8313;49.894;8.084;2022-11-20T03:00:27;19.40;;;10.43;;
16407;SDS011;8313;49.894;8.084;2022-11-20T03:02:52;21.67;;;10.43;;
16407;SDS011;8313;49.894;8.084;2022-11-20T03:05:18;18.83;;;9.87;;
16407;SDS011;8313;49.894;8.084;2022-11-20T03:07:44;23.17;;;10.43;;
16407;SDS011;8313;49.894;8.084;2022-11-20T03:10:09;23.57;;;11.57;;
16407;SDS011;8313;49.894;8.084;2022-11-20T03:12:35;17.73;;;8.77;;
16407;SDS011;8313;49.894;8.084;2022-11-20T03:15:01;22.37;;;10.80;;
16407;SDS011;8313;49.894;8.084;2022-11-20T03:17:26;17.13;;;9.43;;
16407;SDS011;8313;49.894;8.084;2022-11-20T03:19:52;21.80;;;10.10;;
16407;SDS011;8313;49.894;8.084;2022-11-20T03:22:18;17.87;;;10.07;;
16407;SDS011;8313;49.894;8.084;2022-11-20T03:24:43;23.43;;;11.10;;
16407;SDS011;8313;49.894;8.084;2022-11-20T03:27:09;15.43;;;8.20;;
16407;SDS011;8313;49.894;8.084;2022-11-20T03:29:35;24.03;;;10.80;;
16407;SDS011;8313;49.894;8.084;2022-11-20T03:32:01;20.37;;;10.80;;
16407;SDS011;8313;49.894;8.084;2022-11-20T03:34:26;15.47;;;9.10;;
16407;SDS011;8313;49.894;8.084;2022-11-20T03:36:52;19.70;;;9.80;;
16407;SDS011;8313;49.894;8.084;2022-11-20T03:39:17;22.57;;;10.37;;
16407;SDS011;8313;49.894;8.084;2022-11-20T03:41:43;22.60;;;10.10;;
16407;SDS011;8313;49.894;8.084;2022-11-20T03:44:10;20.13;;;10.80;;
16407;SDS011;8313;49.894;8.084;2022-11-20T03:46:36;20.60;;;10.17;;
16407;SDS011;8313;49.894;8.084;2022-11-20T03:49:03;21.47;;;10.97;;
16407;SDS011;8313;49.894;8.084;2022-11-20T03:51:30;20.27;;;11.20;;
16407;SDS011;8313;49.894;8.084;2022-11-20T03:54:01;18.20;;;10.23;;
16407;SDS011;8313;49.894;8.084;2022-11-20T03:56:29;19.97;;;10.10;;
16407;SDS011;8313;49.894;8.084;2022-11-20T03:58:56;19.27;;;9.97;;
16407;SDS011;8313;49.894;8.084;2022-11-20T04:01:23;22.67;;;9.17;;
16407;SDS011;8313;49.894;8.084;2022-11-20T04:03:54;22.63;;;11.50;;
16407;SDS011;8313;49.894;8.084;2022-11-20T04:06:24;20.60;;;10.40;;
16407;SDS011;8313;49.894;8.084;2022-11-20T04:09:01;17.43;;;10.47;;
16407;SDS011;8313;49.894;8.084;2022-11-20T04:11:28;24.47;;;10.83;;
16407;SDS011;8313;49.894;8.084;2022-11-20T04:13:56;24.53;;;10.27;;
16407;SDS011;8313;49.894;8.084;2022-11-20T04:16:24;21.70;;;10.30;;
16407;SDS011;8313;49.894;8.084;2022-11-20T04:18:51;19.23;;;10.60;;
16407;SDS011;8313;49.894;8.084;2022-11-20T04:21:18;22.63;;;11.00;;
16407;SDS011;8313;49.894;8.084;2022-11-20T04:23:44;27.83;;;11.47;;
16407;SDS011;8313;49.894;8.084;2022-11-20T04:26:10;25.70;;;12.87;;
16407;SDS011;8313;49.894;8.084;2022-11-20T04:28:37;20.37;;;10.67;;
16407;SDS011;8313;49.894;8.084;2022-11-20T04:31:07;21.70;;;11.87;;
16407;SDS011;8313;49.894;8.084;2022-11-20T04:33:35;16.43;;;8.77;;
16407;SDS011;8313;49.894;8.084;2022-11-20T04:36:09;19.07;;;8.57;;
16407;SDS011;8313;49.894;8.084;2022-11-20T04:38:36;25.93;;;11.50;;
16407;SDS011;8313;49.894;8.084;2022-11-20T04:41:03;20.03;;;10.73;;
16407;SDS011;8313;49.894;8.084;2022-11-20T04:43:31;21.60;;;11.33;;
16407;SDS011;8313;49.894;8.084;2022-11-20T04:45:58;20.00;;;10.50;;
16407;SDS011;8313;49.894;8.084;2022-11-20T04:48:28;23.77;;;10.90;;
16407;SDS011;8313;49.894;8.084;2022-11-20T04:50:54;21.90;;;10.87;;
16407;SDS011;8313;49.894;8.084;2022-11-20T04:53:20;19.03;;;9.50;;
16407;SDS011;8313;49.894;8.084;2022-11-20T04:55:47;21.20;;;10.27;;
16407;SDS011;8313;49.894;8.084;2022-11-20T04:58:13;22.70;;;11.70;;
16407;SDS011;8313;49.894;8.084;2022-11-20T05:00:39;21.33;;;11.60;;
16407;SDS011;8313;49.894;8.084;2022-11-20T05:03:04;17.57;;;9.50;;
16407;SDS011;8313;49.894;8.084;2022-11-20T05:05:30;24.93;;;11.83;;
16407;SDS011;8313;49.894;8.084;2022-11-20T05:07:56;24.97;;;10.73;;
16407;SDS011;8313;49.894;8.084;2022-11-20T05:10:23;24.20;;;11.17;;
16407;SDS011;8313;49.894;8.084;2022-11-20T05:12:49;17.63;;;9.73;;
16407;SDS011;8313;49.894;8.084;2022-11-20T05:15:15;20.23;;;9.77;;
16407;SDS011;8313;49.894;8.084;2022-11-20T05:17:40;17.83;;;9.10;;
16407;SDS011;8313;49.894;8.084;2022-11-20T05:20:06;22.43;;;9.50;;
16407;SDS011;8313;49.894;8.084;2022-11-20T05:22:32;19.00;;;10.00;;
16407;SDS011;8313;49.894;8.084;2022-11-20T05:24:58;20.57;;;10.53;;
16407;SDS011;8313;49.894;8.084;2022-11-20T05:27:24;16.57;;;9.30;;
16407;SDS011;8313;49.894;8.084;2022-11-20T05:29:49;18.53;;;10.63;;
16407;SDS011;8313;49.894;8.084;2022-11-20T05:32:15;22.10;;;9.70;;
16407;SDS011;8313;49.894;8.084;2022-11-20T05:34:40;20.83;;;9.70;;
16407;SDS011;8313;49.894;8.084;2022-11-20T05:37:06;17.53;;;9.43;;
16407;SDS011;8313;49.894;8.084;2022-11-20T05:39:32;25.63;;;11.30;;
16407;SDS011;8313;49.894;8.084;2022-11-20T05:41:57;20.07;;;10.47;;
16407;SDS011;8313;49.894;8.084;2022-11-20T05:44:41;20.17;;;10.30;;
16407;SDS011;8313;49.894;8.084;2022-11-20T05:47:07;23.23;;;10.60;;
16407;SDS011;8313;49.894;8.084;2022-11-20T05:49:33;18.63;;;9.00;;
16407;SDS011;8313;49.894;8.084;2022-11-20T05:51:58;18.93;;;10.10;;
16407;SDS011;8313;49.894;8.084;2022-11-20T05:54:24;19.00;;;9.47;;
16407;SDS011;8313;49.894;8.084;2022-11-20T05:56:49;19.50;;;9.37;;
16407;SDS011;8313;49.894;8.084;2022-11-20T05:59:15;18.50;;;9.90;;
16407;SDS011;8313;49.894;8.084;2022-11-20T06:01:41;18.80;;;10.13;;
16407;SDS011;8313;49.894;8.084;2022-11-20T06:04:07;23.90;;;9.60;;
16407;SDS011;8313;49.894;8.084;2022-11-20T06:06:33;19.37;;;8.77;;
16407;SDS011;8313;49.894;8.084;2022-11-20T06:08:58;20.70;;;10.53;;
16407;SDS011;8313;49.894;8.084;2022-11-20T06:11:24;20.57;;;9.27;;
16407;SDS011;8313;49.894;8.084;2022-11-20T06:13:50;26.20;;;14.13;;
16407;SDS011;8313;49.894;8.084;2022-11-20T06:16:17;28.90;;;15.70;;
16407;SDS011;8313;49.894;8.084;2022-11-20T06:18:44;24.63;;;11.40;;
16407;SDS011;8313;49.894;8.084;2022-11-20T06:21:14;19.30;;;10.90;;
16407;SDS011;8313;49.894;8.084;2022-11-20T06:23:41;20.30;;;11.17;;
16407;SDS011;8313;49.894;8.084;2022-11-20T06:26:12;20.00;;;10.70;;
16407;SDS011;8313;49.894;8.084;2022-11-20T06:28:39;21.80;;;11.77;;
16407;SDS011;8313;49.894;8.084;2022-11-20T06:31:06;21.17;;;12.67;;
16407;SDS011;8313;49.894;8.084;2022-11-20T06:33:32;20.67;;;10.73;;
16407;SDS011;8313;49.894;8.084;2022-11-20T06:35:58;26.00;;;11.90;;
16407;SDS011;8313;49.894;8.084;2022-11-20T06:38:26;17.37;;;10.00;;
16407;SDS011;8313;49.894;8.084;2022-11-20T06:40:52;22.10;;;10.17;;
16407;SDS011;8313;49.894;8.084;2022-11-20T06:43:18;19.70;;;9.90;;
16407;SDS011;8313;49.894;8.084;2022-11-20T06:45:44;21.30;;;10.23;;
16407;SDS011;8313;49.894;8.084;2022-11-20T06:48:10;18.60;;;10.10;;
16407;SDS011;8313;49.894;8.084;2022-11-20T06:50:38;20.83;;;10.93;;
16407;SDS011;8313;49.894;8.084;2022-11-20T06:53:04;26.97;;;11.03;;
16407;SDS011;8313;49.894;8.084;2022-11-20T06:55:30;18.40;;;9.40;;
16407;SDS011;8313;49.894;8.084;2022-11-20T06:57:57;20.13;;;10.47;;
16407;SDS011;8313;49.894;8.084;2022-11-20T07:00:23;17.13;;;9.20;;
16407;SDS011;8313;49.894;8.084;2022-11-20T07:02:49;16.90;;;10.30;;
16407;SDS011;8313;49.894;8.084;2022-11-20T07:05:15;17.47;;;9.20;;
16407;SDS011;8313;49.894;8.084;2022-11-20T07:07:42;20.33;;;10.00;;
16407;SDS011;8313;49.894;8.084;2022-11-20T07:10:08;21.17;;;9.90;;
16407;SDS011;8313;49.894;8.084;2022-11-20T07:12:34;16.13;;;9.33;;
16407;SDS011;8313;49.894;8.084;2022-11-20T07:14:59;17.33;;;8.90;;
16407;SDS011;8313;49.894;8.084;2022-11-20T07:17:25;18.67;;;9.70;;
16407;SDS011;8313;49.894;8.084;2022-11-20T07:19:51;18.03;;;9.17;;
16407;SDS011;8313;49.894;8.084;2022-11-20T07:22:17;14.97;;;8.80;;
16407;SDS011;8313;49.894;8.084;2022-11-20T07:24:42;20.23;;;10.80;;
16407;SDS011;8313;49.894;8.084;2022-11-20T07:27:08;19.67;;;10.97;;
16407;SDS011;8313;49.894;8.084;2022-11-20T07:29:33;24.37;;;11.27;;
16407;SDS011;8313;49.894;8.084;2022-11-20T07:31:59;15.73;;;9.43;;
16407;SDS011;8313;49.894;8.084;2022-11-20T07:34:25;15.90;;;8.33;;
16407;SDS011;8313;49.894;8.084;2022-11-20T07:36:50;24.10;;;12.30;;
16407;SDS011;8313;49.894;8.084;2022-11-20T07:39:16;28.77;;;14.27;;
16407;SDS011;8313;49.894;8.084;2022-11-20T07:41:41;27.37;;;13.57;;
16407;SDS011;8313;49.894;8.084;2022-11-20T07:44:07;21.90;;;12.60;;
16407;SDS011;8313;49.894;8.084;2022-11-20T07:46:33;20.03;;;10.30;;
16407;SDS011;8313;49.894;8.084;2022-11-20T07:48:58;21.93;;;11.60;;
16407;SDS011;8313;49.894;8.084;2022-11-20T07:51:24;14.97;;;9.57;;
16407;SDS011;8313;49.894;8.084;2022-11-20T07:53:53;22.33;;;11.70;;
16407;SDS011;8313;49.894;8.084;2022-11-20T07:56:19;25.00;;;11.67;;
16407;SDS011;8313;49.894;8.084;2022-11-20T07:58:45;15.20;;;9.70;;
16407;SDS011;8313;49.894;8.084;2022-11-20T08:01:10;20.00;;;10.03;;
16407;SDS011;8313;49.894;8.084;2022-11-20T08:03:36;17.17;;;9.37;;
16407;SDS011;8313;49.894;8.084;2022-11-20T08:06:05;15.03;;;9.30;;
16407;SDS011;8313;49.894;8.084;2022-11-20T08:08:31;12.43;;;7.90;;
16407;SDS011;8313;49.894;8.084;2022-11-20T08:10:57;19.90;;;10.17;;
16407;SDS011;8313;49.894;8.084;2022-11-20T08:13:42;18.87;;;8.77;;
16407;SDS011;8313;49.894;8.084;2022-11-20T08:16:27;20.57;;;9.40;;
16407;SDS011;8313;49.894;8.084;2022-11-20T08:18:53;15.40;;;7.73;;
16407;SDS011;8313;49.894;8.084;2022-11-20T08:21:18;17.60;;;9.73;;
16407;SDS011;8313;49.894;8.084;2022-11-20T08:23:44;21.67;;;9.60;;
16407;SDS011;8313;49.894;8.084;2022-11-20T08:26:10;16.77;;;9.77;;
16407;SDS011;8313;49.894;8.084;2022-11-20T08:28:35;16.73;;;9.57;;
16407;SDS011;8313;49.894;8.084;2022-11-20T08:31:02;14.93;;;8.53;;
16407;SDS011;8313;49.894;8.084;2022-11-20T08:33:28;23.00;;;10.93;;
16407;SDS011;8313;49.894;8.084;2022-11-20T08:35:58;19.73;;;9.83;;
16407;SDS011;8313;49.894;8.084;2022-11-20T08:38:25;17.40;;;9.57;;
16407;SDS011;8313;49.894;8.084;2022-11-20T08:40:50;22.07;;;10.60;;
16407;SDS011;8313;49.894;8.084;2022-11-20T08:43:35;14.90;;;9.00;;
16407;SDS011;8313;49.894;8.084;2022-11-20T08:46:00;15.37;;;9.33;;
16407;SDS011;8313;49.894;8.084;2022-11-20T08:48:26;20.60;;;10.80;;
16407;SDS011;8313;49.894;8.084;2022-11-20T08:50:51;21.77;;;9.67;;
16407;SDS011;8313;49.894;8.084;2022-11-20T08:53:17;24.87;;;14.10;;
16407;SDS011;8313;49.894;8.084;2022-11-20T08:55:43;25.70;;;13.67;;
16407;SDS011;8313;49.894;8.084;2022-11-20T08:58:08;25.57;;;13.20;;
16407;SDS011;8313;49.894;8.084;2022-11-20T09:00:34;21.80;;;9.50;;
16407;SDS011;8313;49.894;8.084;2022-11-20T09:03:00;20.27;;;9.70;;
16407;SDS011;8313;49.894;8.084;2022-11-20T09:05:26;19.90;;;9.97;;
16407;SDS011;8313;49.894;8.084;2022-11-20T09:07:55;19.70;;;9.90;;
16407;SDS011;8313;49.894;8.084;2022-11-20T09:10:21;24.37;;;10.33;;
16407;SDS011;8313;49.894;8.084;2022-11-20T09:12:50;17.60;;;9.00;;
16407;SDS011;8313;49.894;8.084;2022-11-20T09:15:17;17.53;;;9.87;;
16407;SDS011;8313;49.894;8.084;2022-11-20T09:17:50;17.53;;;9.50;;
16407;SDS011;8313;49.894;8.084;2022-11-20T09:20:19;18.53;;;8.40;;
16407;SDS011;8313;49.894;8.084;2022-11-20T09:22:45;18.27;;;7.90;;
16407;SDS011;8313;49.894;8.084;2022-11-20T09:25:10;17.30;;;9.40;;
16407;SDS011;8313;49.894;8.084;2022-11-20T09:27:36;15.43;;;8.43;;
16407;SDS011;8313;49.894;8.084;2022-11-20T09:30:03;18.13;;;8.20;;
16407;SDS011;8313;49.894;8.084;2022-11-20T09:32:29;16.00;;;9.23;;
16407;SDS011;8313;49.894;8.084;2022-11-20T09:34:55;20.57;;;10.40;;
16407;SDS011;8313;49.894;8.084;2022-11-20T09:37:20;27.43;;;13.97;;
16407;SDS011;8313;49.894;8.084;2022-11-20T09:39:46;15.70;;;10.20;;
16407;SDS011;8313;49.894;8.084;2022-11-20T09:55:27;12.03;;;6.60;;
16407;SDS011;8313;49.894;8.084;2022-11-20T09:57:55;12.37;;;6.97;;
16407;SDS011;8313;49.894;8.084;2022-11-20T10:00:24;15.90;;;7.63;;
16407;SDS011;8313;49.894;8.084;2022-11-20T10:03:11;12.60;;;8.30;;
16407;SDS011;8313;49.894;8.084;2022-11-20T10:05:47;12.70;;;7.77;;
16407;SDS011;8313;49.894;8.084;2022-11-20T10:08:28;14.30;;;7.73;;
16407;SDS011;8313;49.894;8.084;2022-11-20T10:11:03;14.57;;;8.13;;
16407;SDS011;8313;49.894;8.084;2022-11-20T10:19:28;25.33;;;11.83;;
16407;SDS011;8313;49.894;8.084;2022-11-20T10:25:05;30.60;;;20.50;;
16407;SDS011;8313;49.894;8.084;2022-11-20T10:27:43;18.60;;;10.50;;
16407;SDS011;8313;49.894;8.084;2022-11-20T10:30:43;15.07;;;8.97;;
16407;SDS011;8313;49.894;8.084;2022-11-20T10:35:52;12.47;;;7.87;;
16407;SDS011;8313;49.894;8.084;2022-11-20T10:38:26;16.30;;;9.00;;
16407;SDS011;8313;49.894;8.084;2022-11-20T10:40:56;12.27;;;6.50;;
16407;SDS011;8313;49.894;8.084;2022-11-20T10:43:45;10.07;;;7.00;;
16407;SDS011;8313;49.894;8.084;2022-11-20T10:46:20;15.20;;;8.67;;
16407;SDS011;8313;49.894;8.084;2022-11-20T10:48:47;17.40;;;10.13;;
16407;SDS011;8313;49.894;8.084;2022-11-20T10:54:39;21.57;;;9.37;;
16407;SDS011;8313;49.894;8.084;2022-11-20T10:59:47;18.93;;;9.50;;
16407;SDS011;8313;49.894;8.084;2022-11-20T11:02:52;16.53;;;7.77;;
16407;SDS011;8313;49.894;8.084;2022-11-20T11:07:46;13.03;;;8.67;;
16407;SDS011;8313;49.894;8.084;2022-11-20T11:10:19;11.20;;;7.77;;
16407;SDS011;8313;49.894;8.084;2022-11-20T11:12:46;14.47;;;8.33;;
16407;SDS011;8313;49.894;8.084;2022-11-20T11:15:25;13.70;;;7.73;;
16407;SDS011;8313;49.894;8.084;2022-11-20T11:18:01;14.00;;;8.63;;
16407;SDS011;8313;49.894;8.084;2022-11-20T11:20:26;14.70;;;7.93;;
16407;SDS011;8313;49.894;8.084;2022-11-20T11:22:53;13.00;;;7.80;;
16407;SDS011;8313;49.894;8.084;2022-11-20T11:25:25;10.50;;;6.80;;
16407;SDS011;8313;49.894;8.084;2022-11-20T11:27:59;14.57;;;8.13;;
16407;SDS011;8313;49.894;8.084;2022-11-20T11:30:45;10.30;;;6.53;;
16407;SDS011;8313;49.894;8.084;2022-11-20T11:33:20;12.50;;;7.20;;
16407;SDS011;8313;49.894;8.084;2022-11-20T11:35:52;11.43;;;7.07;;
16407;SDS011;8313;49.894;8.084;2022-11-20T11:38:30;14.27;;;8.00;;
16407;SDS011;8313;49.894;8.084;2022-11-20T11:41:02;16.60;;;8.60;;
16407;SDS011;8313;49.894;8.084;2022-11-20T11:43:31;12.83;;;6.90;;
16407;SDS011;8313;49.894;8.084;2022-11-20T12:00:14;13.70;;;8.77;;
16407;SDS011;8313;49.894;8.084;2022-11-20T12:07:49;13.97;;;7.67;;
16407;SDS011;8313;49.894;8.084;2022-11-20T12:13:22;13.03;;;7.13;;
16407;SDS011;8313;49.894;8.084;2022-11-20T12:16:11;15.13;;;8.60;;
16407;SDS011;8313;49.894;8.084;2022-11-20T12:18:39;14.00;;;7.53;;
16407;SDS011;8313;49.894;8.084;2022-11-20T12:23:42;17.83;;;8.33;;
16407;SDS011;8313;49.894;8.084;2022-11-20T12:27:01;12.77;;;6.30;;
16407;SDS011;8313;49.894;8.084;2022-11-20T12:30:19;11.63;;;6.57;;
16407;SDS011;8313;49.894;8.084;2022-11-20T12:37:33;13.93;;;7.50;;
16407;SDS011;8313;49.894;8.084;2022-11-20T12:40:13;17.03;;;9.03;;
16407;SDS011;8313;49.894;8.084;2022-11-20T12:57:16;19.43;;;9.53;;
16407;SDS011;8313;49.894;8.084;2022-11-20T13:02:30;17.57;;;8.90;;
16407;SDS011;8313;49.894;8.084;2022-11-20T13:05:21;17.20;;;9.70;;
16407;SDS011;8313;49.894;8.084;2022-11-20T13:08:27;15.63;;;8.73;;
16407;SDS011;8313;49.894;8.084;2022-11-20T13:11:07;16.67;;;9.37;;
16407;SDS011;8313;49.894;8.084;2022-11-20T13:16:23;15.87;;;9.03;;
16407;SDS011;8313;49.894;8.084;2022-11-20T13:18:50;15.37;;;9.10;;
16407;SDS011;8313;49.894;8.084;2022-11-20T13:21:21;15.70;;;9.10;;
16407;SDS011;8313;49.894;8.084;2022-11-20T13:26:43;15.47;;;8.90;;
16407;SDS011;8313;49.894;8.084;2022-11-20T13:29:18;13.83;;;8.77;;
16407;SDS011;8313;49.894;8.084;2022-11-20T13:31:45;16.23;;;8.57;;
16407;SDS011;8313;49.894;8.084;2022-11-20T13:34:14;15.17;;;9.00;;
16407;SDS011;8313;49.894;8.084;2022-11-20T13:36:49;14.93;;;9.30;;
16407;SDS011;8313;49.894;8.084;2022-11-20T13:39:26;15.00;;;9.30;;
16407;SDS011;8313;49.894;8.084;2022-11-20T13:41:57;16.50;;;9.50;;
16407;SDS011;8313;49.894;8.084;2022-11-20T13:44:46;11.80;;;7.67;;
16407;SDS011;8313;49.894;8.084;2022-11-20T13:47:26;16.40;;;8.40;;
16407;SDS011;8313;49.894;8.084;2022-11-20T13:49:53;17.00;;;9.37;;
16407;SDS011;8313;49.894;8.084;2022-11-20T14:00:29;16.70;;;9.30;;
16407;SDS011;8313;49.894;8.084;2022-11-20T14:06:03;21.37;;;11.93;;
16407;SDS011;8313;49.894;8.084;2022-11-20T14:08:43;26.53;;;13.40;;
16407;SDS011;8313;49.894;8.084;2022-11-20T14:16:31;25.93;;;13.70;;
16407;SDS011;8313;49.894;8.084;2022-11-20T14:21:44;23.03;;;12.80;;
16407;SDS011;8313;49.894;8.084;2022-11-20T14:24:18;27.77;;;13.80;;
16407;SDS011;8313;49.894;8.084;2022-11-20T14:26:46;17.20;;;10.27;;
16407;SDS011;8313;49.894;8.084;2022-11-20T14:29:13;21.97;;;12.30;;
16407;SDS011;8313;49.894;8.084;2022-11-20T14:31:41;17.50;;;10.10;;
16407;SDS011;8313;49.894;8.084;2022-11-20T14:34:19;15.93;;;9.90;;
16407;SDS011;8313;49.894;8.084;2022-11-20T14:36:47;16.33;;;9.50;;
16407;SDS011;8313;49.894;8.084;2022-11-20T14:39:22;19.77;;;10.57;;
16407;SDS011;8313;49.894;8.084;2022-11-20T14:41:53;18.60;;;10.13;;
16407;SDS011;8313;49.894;8.084;2022-11-20T14:44:20;19.63;;;11.47;;
16407;SDS011;8313;49.894;8.084;2022-11-20T14:46:56;20.70;;;10.50;;
16407;SDS011;8313;49.894;8.084;2022-11-20T14:49:23;20.33;;;10.80;;
16407;SDS011;8313;49.894;8.084;2022-11-20T14:51:58;17.20;;;10.60;;
16407;SDS011;8313;49.894;8.084;2022-11-20T14:54:44;12.50;;;8.33;;
16407;SDS011;8313;49.894;8.084;2022-11-20T14:59:49;11.57;;;7.43;;
16407;SDS011;8313;49.894;8.084;2022-11-20T15:02:15;16.33;;;10.73;;
16407;SDS011;8313;49.894;8.084;2022-11-20T15:04:48;11.87;;;7.73;;
16407;SDS011;8313;49.894;8.084;2022-11-20T15:07:29;16.47;;;8.80;;
16407;SDS011;8313;49.894;8.084;2022-11-20T15:10:09;19.40;;;11.90;;
16407;SDS011;8313;49.894;8.084;2022-11-20T15:12:38;19.30;;;13.50;;
16407;SDS011;8313;49.894;8.084;2022-11-20T15:15:10;21.93;;;13.20;;
16407;SDS011;8313;49.894;8.084;2022-11-20T15:17:37;21.50;;;13.70;;
16407;SDS011;8313;49.894;8.084;2022-11-20T15:20:08;25.67;;;15.50;;
16407;SDS011;8313;49.894;8.084;2022-11-20T15:22:40;22.93;;;14.70;;
16407;SDS011;8313;49.894;8.084;2022-11-20T15:25:13;24.93;;;14.50;;
16407;SDS011;8313;49.894;8.084;2022-11-20T15:27:40;22.30;;;15.13;;
16407;SDS011;8313;49.894;8.084;2022-11-20T15:30:16;23.93;;;14.40;;
16407;SDS011;8313;49.894;8.084;2022-11-20T15:32:44;25.80;;;12.90;;
16407;SDS011;8313;49.894;8.084;2022-11-20T15:35:11;19.67;;;12.00;;
16407;SDS011;8313;49.894;8.084;2022-11-20T15:37:38;21.40;;;12.07;;
16407;SDS011;8313;49.894;8.084;2022-11-20T15:40:04;18.80;;;13.07;;
16407;SDS011;8313;49.894;8.084;2022-11-20T15:42:31;23.40;;;13.23;;
16407;SDS011;8313;49.894;8.084;2022-11-20T15:44:57;19.47;;;11.93;;
16407;SDS011;8313;49.894;8.084;2022-11-20T15:47:25;20.90;;;11.87;;
16407;SDS011;8313;49.894;8.084;2022-11-20T15:49:53;50.37;;;21.17;;
16407;SDS011;8313;49.894;8.084;2022-11-20T15:52:18;63.90;;;26.37;;
16407;SDS011;8313;49.894;8.084;2022-11-20T15:54:44;78.10;;;29.13;;
16407;SDS011;8313;49.894;8.084;2022-11-20T15:57:10;40.97;;;20.90;;
16407;SDS011;8313;49.894;8.084;2022-11-20T15:59:35;29.23;;;14.30;;
16407;SDS011;8313;49.894;8.084;2022-11-20T16:02:11;22.90;;;12.03;;
16407;SDS011;8313;49.894;8.084;2022-11-20T16:04:37;22.07;;;13.87;;
16407;SDS011;8313;49.894;8.084;2022-11-20T16:07:03;26.10;;;14.27;;
16407;SDS011;8313;49.894;8.084;2022-11-20T16:09:28;30.40;;;15.70;;
16407;SDS011;8313;49.894;8.084;2022-11-20T16:11:54;30.90;;;15.97;;
16407;SDS011;8313;49.894;8.084;2022-11-20T16:14:20;33.07;;;17.30;;
16407;SDS011;8313;49.894;8.084;2022-11-20T16:17:04;43.63;;;19.90;;
16407;SDS011;8313;49.894;8.084;2022-11-20T16:19:29;38.03;;;19.40;;
16407;SDS011;8313;49.894;8.084;2022-11-20T16:21:57;35.80;;;19.60;;
16407;SDS011;8313;49.894;8.084;2022-11-20T16:24:25;62.57;;;25.47;;
16407;SDS011;8313;49.894;8.084;2022-11-20T16:26:52;86.07;;;38.20;;
16407;SDS011;8313;49.894;8.084;2022-11-20T16:29:18;67.63;;;30.40;;
16407;SDS011;8313;49.894;8.084;2022-11-20T16:31:44;62.50;;;27.70;;
16407;SDS011;8313;49.894;8.084;2022-11-20T16:34:10;73.87;;;29.30;;
16407;SDS011;8313;49.894;8.084;2022-11-20T16:36:35;109.17;;;43.77;;
16407;SDS011;8313;49.894;8.084;2022-11-20T16:39:05;90.67;;;42.00;;
16407;SDS011;8313;49.894;8.084;2022-11-20T16:41:31;89.60;;;37.00;;
16407;SDS011;8313;49.894;8.084;2022-11-20T16:43:59;82.10;;;32.77;;
16407;SDS011;8313;49.894;8.084;2022-11-20T16:46:27;62.33;;;26.93;;
16407;SDS011;8313;49.894;8.084;2022-11-20T16:51:21;44.77;;;20.97;;